sensor_id;sensor_type;location;lat;lon;timestamp;P1;durP1;ratioP1;P2;durP2;ratioP2
5221;SDS011;2630;52.036;8.514;2022-08-02T00:01:28;73.97;;;6.00;;
5221;SDS011;2630;52.036;8.514;2022-08-02T00:03:54;75.93;;;6.40;;
5221;SDS011;2630;52.036;8.514;2022-08-02T00:06:19;74.57;;;5.93;;
5221;SDS011;2630;52.036;8.514;2022-08-02T00:08:45;76.97;;;6.17;;
5221;SDS011;2630;52.036;8.514;2022-08-02T00:11:11;74.80;;;6.00;;
5221;SDS011;2630;52.036;8.514;2022-08-02T00:13:36;75.47;;;5.60;;
5221;SDS011;2630;52.036;8.514;2022-08-02T00:16:02;73.50;;;5.50;;
5221;SDS011;2630;52.036;8.514;2022-08-02T00:18:28;73.60;;;5.47;;
5221;SDS011;2630;52.036;8.514;2022-08-02T00:20:54;74.60;;;5.77;;
5221;SDS011;2630;52.036;8.514;2022-08-02T00:23:19;72.57;;;5.77;;
5221;SDS011;2630;52.036;8.514;2022-08-02T00:25:45;74.17;;;5.97;;
5221;SDS011;2630;52.036;8.514;2022-08-02T00:28:10;73.17;;;5.33;;
5221;SDS011;2630;52.036;8.514;2022-08-02T00:30:36;77.70;;;5.77;;
5221;SDS011;2630;52.036;8.514;2022-08-02T00:33:02;73.53;;;5.50;;
5221;SDS011;2630;52.036;8.514;2022-08-02T00:35:29;74.43;;;5.73;;
5221;SDS011;2630;52.036;8.514;2022-08-02T00:38:04;74.03;;;5.70;;
5221;SDS011;2630;52.036;8.514;2022-08-02T00:40:30;74.03;;;5.60;;
5221;SDS011;2630;52.036;8.514;2022-08-02T00:42:59;75.10;;;5.60;;
5221;SDS011;2630;52.036;8.514;2022-08-02T00:45:28;75.70;;;5.93;;
5221;SDS011;2630;52.036;8.514;2022-08-02T00:47:54;73.77;;;5.63;;
5221;SDS011;2630;52.036;8.514;2022-08-02T00:50:19;74.87;;;5.90;;
5221;SDS011;2630;52.036;8.514;2022-08-02T00:52:45;76.47;;;6.40;;
5221;SDS011;2630;52.036;8.514;2022-08-02T00:55:10;73.70;;;5.03;;
5221;SDS011;2630;52.036;8.514;2022-08-02T00:57:36;73.00;;;5.63;;
5221;SDS011;2630;52.036;8.514;2022-08-02T01:00:02;73.20;;;5.47;;
5221;SDS011;2630;52.036;8.514;2022-08-02T01:02:29;73.50;;;5.50;;
5221;SDS011;2630;52.036;8.514;2022-08-02T01:04:55;76.00;;;5.77;;
5221;SDS011;2630;52.036;8.514;2022-08-02T01:07:21;74.87;;;5.60;;
5221;SDS011;2630;52.036;8.514;2022-08-02T01:09:46;72.97;;;5.27;;
5221;SDS011;2630;52.036;8.514;2022-08-02T01:12:12;75.50;;;5.60;;
5221;SDS011;2630;52.036;8.514;2022-08-02T01:14:41;73.63;;;5.47;;
5221;SDS011;2630;52.036;8.514;2022-08-02T01:17:15;76.13;;;5.83;;
5221;SDS011;2630;52.036;8.514;2022-08-02T01:33:35;76.03;;;6.30;;
5221;SDS011;2630;52.036;8.514;2022-08-02T01:36:07;73.77;;;5.30;;
5221;SDS011;2630;52.036;8.514;2022-08-02T01:38:40;74.27;;;5.83;;
5221;SDS011;2630;52.036;8.514;2022-08-02T01:41:11;74.87;;;5.60;;
5221;SDS011;2630;52.036;8.514;2022-08-02T01:43:42;74.77;;;5.40;;
5221;SDS011;2630;52.036;8.514;2022-08-02T01:46:09;76.97;;;5.90;;
5221;SDS011;2630;52.036;8.514;2022-08-02T01:48:37;73.27;;;5.70;;
5221;SDS011;2630;52.036;8.514;2022-08-02T01:51:05;75.07;;;5.50;;
5221;SDS011;2630;52.036;8.514;2022-08-02T01:53:32;73.40;;;5.93;;
5221;SDS011;2630;52.036;8.514;2022-08-02T01:55:59;73.20;;;5.97;;
5221;SDS011;2630;52.036;8.514;2022-08-02T01:58:28;73.93;;;5.87;;
5221;SDS011;2630;52.036;8.514;2022-08-02T02:00:56;74.27;;;6.13;;
5221;SDS011;2630;52.036;8.514;2022-08-02T02:03:24;73.07;;;5.63;;
5221;SDS011;2630;52.036;8.514;2022-08-02T02:05:52;74.37;;;6.20;;
5221;SDS011;2630;52.036;8.514;2022-08-02T02:08:23;73.07;;;5.90;;
5221;SDS011;2630;52.036;8.514;2022-08-02T02:10:50;75.00;;;6.00;;
5221;SDS011;2630;52.036;8.514;2022-08-02T02:13:17;73.00;;;5.97;;
5221;SDS011;2630;52.036;8.514;2022-08-02T02:15:45;76.00;;;5.73;;
5221;SDS011;2630;52.036;8.514;2022-08-02T02:18:13;72.60;;;5.67;;
5221;SDS011;2630;52.036;8.514;2022-08-02T02:20:44;73.00;;;5.40;;
5221;SDS011;2630;52.036;8.514;2022-08-02T02:23:11;73.10;;;5.73;;
5221;SDS011;2630;52.036;8.514;2022-08-02T02:25:37;72.87;;;5.67;;
5221;SDS011;2630;52.036;8.514;2022-08-02T02:28:06;73.10;;;5.47;;
5221;SDS011;2630;52.036;8.514;2022-08-02T02:30:36;73.47;;;5.20;;
5221;SDS011;2630;52.036;8.514;2022-08-02T02:33:05;72.32;;;5.38;;
5221;SDS011;2630;52.036;8.514;2022-08-02T02:35:33;73.67;;;6.03;;
5221;SDS011;2630;52.036;8.514;2022-08-02T02:38:02;73.37;;;6.03;;
5221;SDS011;2630;52.036;8.514;2022-08-02T02:40:29;72.77;;;5.43;;
5221;SDS011;2630;52.036;8.514;2022-08-02T02:42:55;73.20;;;5.60;;
5221;SDS011;2630;52.036;8.514;2022-08-02T02:45:22;74.70;;;6.10;;
5221;SDS011;2630;52.036;8.514;2022-08-02T02:47:49;72.73;;;5.50;;
5221;SDS011;2630;52.036;8.514;2022-08-02T02:50:17;72.80;;;5.27;;
5221;SDS011;2630;52.036;8.514;2022-08-02T02:52:44;73.30;;;5.90;;
5221;SDS011;2630;52.036;8.514;2022-08-02T02:55:11;74.70;;;6.10;;
5221;SDS011;2630;52.036;8.514;2022-08-02T02:57:37;73.55;;;5.32;;
5221;SDS011;2630;52.036;8.514;2022-08-02T03:00:05;74.20;;;5.47;;
5221;SDS011;2630;52.036;8.514;2022-08-02T03:02:40;72.57;;;5.80;;
5221;SDS011;2630;52.036;8.514;2022-08-02T03:05:08;73.10;;;5.70;;
5221;SDS011;2630;52.036;8.514;2022-08-02T03:07:35;73.10;;;5.83;;
5221;SDS011;2630;52.036;8.514;2022-08-02T03:10:02;73.20;;;5.93;;
5221;SDS011;2630;52.036;8.514;2022-08-02T03:12:29;72.80;;;5.20;;
5221;SDS011;2630;52.036;8.514;2022-08-02T03:14:56;72.77;;;5.23;;
5221;SDS011;2630;52.036;8.514;2022-08-02T03:17:23;74.47;;;5.90;;
5221;SDS011;2630;52.036;8.514;2022-08-02T03:19:49;72.77;;;5.63;;
5221;SDS011;2630;52.036;8.514;2022-08-02T03:22:15;73.00;;;5.27;;
5221;SDS011;2630;52.036;8.514;2022-08-02T03:24:40;72.77;;;5.33;;
5221;SDS011;2630;52.036;8.514;2022-08-02T03:27:06;73.10;;;5.90;;
5221;SDS011;2630;52.036;8.514;2022-08-02T03:29:32;72.80;;;5.47;;
5221;SDS011;2630;52.036;8.514;2022-08-02T03:31:58;72.90;;;5.50;;
5221;SDS011;2630;52.036;8.514;2022-08-02T03:34:24;73.20;;;5.43;;
5221;SDS011;2630;52.036;8.514;2022-08-02T03:36:50;73.00;;;5.43;;
5221;SDS011;2630;52.036;8.514;2022-08-02T03:39:19;73.00;;;5.43;;
5221;SDS011;2630;52.036;8.514;2022-08-02T03:41:45;75.67;;;5.70;;
5221;SDS011;2630;52.036;8.514;2022-08-02T03:44:13;72.77;;;4.73;;
5221;SDS011;2630;52.036;8.514;2022-08-02T03:46:40;75.87;;;6.20;;
5221;SDS011;2630;52.036;8.514;2022-08-02T03:49:07;73.20;;;5.67;;
5221;SDS011;2630;52.036;8.514;2022-08-02T03:51:34;72.70;;;5.53;;
5221;SDS011;2630;52.036;8.514;2022-08-02T03:54:01;72.70;;;5.30;;
5221;SDS011;2630;52.036;8.514;2022-08-02T03:56:27;79.10;;;7.07;;
5221;SDS011;2630;52.036;8.514;2022-08-02T03:59:08;73.20;;;5.47;;
5221;SDS011;2630;52.036;8.514;2022-08-02T04:01:35;73.60;;;5.67;;
5221;SDS011;2630;52.036;8.514;2022-08-02T04:04:01;72.57;;;5.77;;
5221;SDS011;2630;52.036;8.514;2022-08-02T04:06:27;74.50;;;5.87;;
5221;SDS011;2630;52.036;8.514;2022-08-02T04:08:53;74.57;;;5.73;;
5221;SDS011;2630;52.036;8.514;2022-08-02T04:11:18;73.27;;;5.63;;
5221;SDS011;2630;52.036;8.514;2022-08-02T04:14:01;73.15;;;5.47;;
5221;SDS011;2630;52.036;8.514;2022-08-02T04:19:06;72.97;;;5.93;;
5221;SDS011;2630;52.036;8.514;2022-08-02T04:21:34;73.00;;;5.28;;
5221;SDS011;2630;52.036;8.514;2022-08-02T04:24:03;73.70;;;6.00;;
5221;SDS011;2630;52.036;8.514;2022-08-02T04:26:31;76.17;;;6.00;;
5221;SDS011;2630;52.036;8.514;2022-08-02T04:28:58;72.15;;;5.30;;
5221;SDS011;2630;52.036;8.514;2022-08-02T04:31:25;72.77;;;5.30;;
5221;SDS011;2630;52.036;8.514;2022-08-02T04:33:51;73.27;;;5.73;;
5221;SDS011;2630;52.036;8.514;2022-08-02T04:36:17;71.90;;;5.23;;
5221;SDS011;2630;52.036;8.514;2022-08-02T04:38:43;72.93;;;5.83;;
5221;SDS011;2630;52.036;8.514;2022-08-02T04:41:09;73.10;;;5.97;;
5221;SDS011;2630;52.036;8.514;2022-08-02T04:43:34;73.10;;;5.97;;
5221;SDS011;2630;52.036;8.514;2022-08-02T04:46:00;72.70;;;5.47;;
5221;SDS011;2630;52.036;8.514;2022-08-02T04:48:27;72.60;;;5.43;;
5221;SDS011;2630;52.036;8.514;2022-08-02T04:50:53;72.70;;;5.87;;
5221;SDS011;2630;52.036;8.514;2022-08-02T04:53:19;72.70;;;5.50;;
5221;SDS011;2630;52.036;8.514;2022-08-02T04:55:45;73.50;;;5.73;;
5221;SDS011;2630;52.036;8.514;2022-08-02T04:58:12;72.80;;;5.73;;
5221;SDS011;2630;52.036;8.514;2022-08-02T05:00:38;73.37;;;6.03;;
5221;SDS011;2630;52.036;8.514;2022-08-02T05:03:03;73.53;;;5.70;;
5221;SDS011;2630;52.036;8.514;2022-08-02T05:05:29;75.30;;;6.00;;
5221;SDS011;2630;52.036;8.514;2022-08-02T05:07:55;73.40;;;5.67;;
5221;SDS011;2630;52.036;8.514;2022-08-02T05:10:21;73.43;;;5.80;;
5221;SDS011;2630;52.036;8.514;2022-08-02T05:12:47;75.50;;;6.60;;
5221;SDS011;2630;52.036;8.514;2022-08-02T05:15:13;73.30;;;6.20;;
5221;SDS011;2630;52.036;8.514;2022-08-02T05:17:41;72.67;;;5.63;;
5221;SDS011;2630;52.036;8.514;2022-08-02T05:20:08;73.40;;;5.80;;
5221;SDS011;2630;52.036;8.514;2022-08-02T05:22:34;73.17;;;5.77;;
5221;SDS011;2630;52.036;8.514;2022-08-02T05:24:59;73.47;;;5.73;;
5221;SDS011;2630;52.036;8.514;2022-08-02T05:27:25;72.73;;;5.20;;
5221;SDS011;2630;52.036;8.514;2022-08-02T05:29:51;74.23;;;5.93;;
5221;SDS011;2630;52.036;8.514;2022-08-02T05:32:18;73.07;;;5.20;;
5221;SDS011;2630;52.036;8.514;2022-08-02T05:34:44;72.87;;;5.97;;
5221;SDS011;2630;52.036;8.514;2022-08-02T05:37:10;74.17;;;7.90;;
5221;SDS011;2630;52.036;8.514;2022-08-02T05:39:35;73.20;;;5.70;;
5221;SDS011;2630;52.036;8.514;2022-08-02T05:42:01;73.40;;;5.57;;
5221;SDS011;2630;52.036;8.514;2022-08-02T05:44:27;72.77;;;5.43;;
5221;SDS011;2630;52.036;8.514;2022-08-02T05:46:52;74.70;;;5.97;;
5221;SDS011;2630;52.036;8.514;2022-08-02T05:49:18;72.97;;;5.70;;
5221;SDS011;2630;52.036;8.514;2022-08-02T05:52:28;73.77;;;5.97;;
5221;SDS011;2630;52.036;8.514;2022-08-02T05:54:40;73.50;;;5.80;;
5221;SDS011;2630;52.036;8.514;2022-08-02T05:57:25;72.80;;;5.73;;
5221;SDS011;2630;52.036;8.514;2022-08-02T06:00:10;76.83;;;6.00;;
5221;SDS011;2630;52.036;8.514;2022-08-02T06:02:47;72.70;;;5.37;;
5221;SDS011;2630;52.036;8.514;2022-08-02T06:05:31;74.40;;;5.60;;
5221;SDS011;2630;52.036;8.514;2022-08-02T06:07:58;73.00;;;5.63;;
5221;SDS011;2630;52.036;8.514;2022-08-02T06:10:25;73.10;;;5.40;;
5221;SDS011;2630;52.036;8.514;2022-08-02T06:13:08;79.33;;;7.47;;
5221;SDS011;2630;52.036;8.514;2022-08-02T06:15:36;72.70;;;5.70;;
5221;SDS011;2630;52.036;8.514;2022-08-02T06:18:03;72.97;;;5.97;;
5221;SDS011;2630;52.036;8.514;2022-08-02T06:20:30;73.00;;;6.07;;
5221;SDS011;2630;52.036;8.514;2022-08-02T06:23:05;72.87;;;5.93;;
5221;SDS011;2630;52.036;8.514;2022-08-02T06:25:33;73.00;;;6.00;;
5221;SDS011;2630;52.036;8.514;2022-08-02T06:28:01;72.87;;;5.57;;
5221;SDS011;2630;52.036;8.514;2022-08-02T06:30:29;74.43;;;5.77;;
5221;SDS011;2630;52.036;8.514;2022-08-02T06:32:56;72.60;;;5.37;;
5221;SDS011;2630;52.036;8.514;2022-08-02T06:35:28;74.67;;;6.03;;
5221;SDS011;2630;52.036;8.514;2022-08-02T06:38:00;72.87;;;5.80;;
5221;SDS011;2630;52.036;8.514;2022-08-02T06:43:11;73.30;;;5.73;;
5221;SDS011;2630;52.036;8.514;2022-08-02T06:45:41;72.90;;;5.60;;
5221;SDS011;2630;52.036;8.514;2022-08-02T06:48:06;72.77;;;5.53;;
5221;SDS011;2630;52.036;8.514;2022-08-02T06:50:32;72.97;;;5.97;;
5221;SDS011;2630;52.036;8.514;2022-08-02T06:52:59;72.70;;;5.57;;
5221;SDS011;2630;52.036;8.514;2022-08-02T06:55:24;74.37;;;5.70;;
5221;SDS011;2630;52.036;8.514;2022-08-02T06:57:52;72.37;;;5.23;;
5221;SDS011;2630;52.036;8.514;2022-08-02T07:00:17;73.30;;;6.10;;
5221;SDS011;2630;52.036;8.514;2022-08-02T07:02:43;86.83;;;7.13;;
5221;SDS011;2630;52.036;8.514;2022-08-02T07:05:09;76.00;;;6.77;;
5221;SDS011;2630;52.036;8.514;2022-08-02T07:07:35;72.93;;;5.63;;
5221;SDS011;2630;52.036;8.514;2022-08-02T07:10:01;74.87;;;6.33;;
5221;SDS011;2630;52.036;8.514;2022-08-02T07:12:30;72.90;;;5.40;;
5221;SDS011;2630;52.036;8.514;2022-08-02T07:15:00;82.10;;;6.50;;
5221;SDS011;2630;52.036;8.514;2022-08-02T07:17:27;73.40;;;5.87;;
5221;SDS011;2630;52.036;8.514;2022-08-02T07:19:54;84.93;;;6.47;;
5221;SDS011;2630;52.036;8.514;2022-08-02T07:22:20;74.80;;;6.17;;
5221;SDS011;2630;52.036;8.514;2022-08-02T07:24:48;74.57;;;6.10;;
5221;SDS011;2630;52.036;8.514;2022-08-02T07:27:14;74.17;;;5.57;;
5221;SDS011;2630;52.036;8.514;2022-08-02T07:29:40;72.97;;;5.67;;
5221;SDS011;2630;52.036;8.514;2022-08-02T07:32:06;72.77;;;5.63;;
5221;SDS011;2630;52.036;8.514;2022-08-02T07:34:32;74.80;;;5.73;;
5221;SDS011;2630;52.036;8.514;2022-08-02T07:36:57;73.00;;;6.10;;
5221;SDS011;2630;52.036;8.514;2022-08-02T07:39:23;73.90;;;5.30;;
5221;SDS011;2630;52.036;8.514;2022-08-02T07:41:49;74.90;;;6.47;;
5221;SDS011;2630;52.036;8.514;2022-08-02T07:44:18;73.20;;;5.57;;
5221;SDS011;2630;52.036;8.514;2022-08-02T07:46:44;73.10;;;5.60;;
5221;SDS011;2630;52.036;8.514;2022-08-02T07:49:10;73.70;;;5.23;;
5221;SDS011;2630;52.036;8.514;2022-08-02T07:51:42;73.60;;;5.67;;
5221;SDS011;2630;52.036;8.514;2022-08-02T07:54:08;73.30;;;5.87;;
5221;SDS011;2630;52.036;8.514;2022-08-02T07:56:34;78.67;;;7.90;;
5221;SDS011;2630;52.036;8.514;2022-08-02T07:58:59;74.67;;;5.97;;
5221;SDS011;2630;52.036;8.514;2022-08-02T08:01:25;72.77;;;5.23;;
5221;SDS011;2630;52.036;8.514;2022-08-02T08:03:51;72.60;;;5.53;;
5221;SDS011;2630;52.036;8.514;2022-08-02T08:06:16;73.17;;;5.60;;
5221;SDS011;2630;52.036;8.514;2022-08-02T08:08:42;72.27;;;5.63;;
5221;SDS011;2630;52.036;8.514;2022-08-02T08:11:07;72.40;;;5.57;;
5221;SDS011;2630;52.036;8.514;2022-08-02T08:13:36;74.03;;;6.10;;
5221;SDS011;2630;52.036;8.514;2022-08-02T08:16:02;75.37;;;5.63;;
5221;SDS011;2630;52.036;8.514;2022-08-02T08:18:28;72.47;;;5.87;;
5221;SDS011;2630;52.036;8.514;2022-08-02T08:20:53;72.27;;;5.87;;
5221;SDS011;2630;52.036;8.514;2022-08-02T08:23:19;74.23;;;5.83;;
5221;SDS011;2630;52.036;8.514;2022-08-02T08:25:45;72.40;;;5.47;;
5221;SDS011;2630;52.036;8.514;2022-08-02T08:28:10;73.47;;;5.97;;
5221;SDS011;2630;52.036;8.514;2022-08-02T08:30:38;73.20;;;5.63;;
5221;SDS011;2630;52.036;8.514;2022-08-02T08:33:05;72.27;;;5.57;;
5221;SDS011;2630;52.036;8.514;2022-08-02T08:35:31;72.10;;;5.80;;
5221;SDS011;2630;52.036;8.514;2022-08-02T08:37:57;73.87;;;7.20;;
5221;SDS011;2630;52.036;8.514;2022-08-02T08:40:23;73.40;;;5.67;;
5221;SDS011;2630;52.036;8.514;2022-08-02T08:42:49;72.63;;;5.47;;
5221;SDS011;2630;52.036;8.514;2022-08-02T08:45:15;73.47;;;5.63;;
5221;SDS011;2630;52.036;8.514;2022-08-02T08:47:42;75.57;;;6.20;;
5221;SDS011;2630;52.036;8.514;2022-08-02T08:50:09;76.97;;;5.90;;
5221;SDS011;2630;52.036;8.514;2022-08-02T08:52:47;72.57;;;5.77;;
5221;SDS011;2630;52.036;8.514;2022-08-02T08:55:14;74.17;;;6.00;;
5221;SDS011;2630;52.036;8.514;2022-08-02T08:57:41;72.47;;;6.13;;
5221;SDS011;2630;52.036;8.514;2022-08-02T09:00:08;75.63;;;5.80;;
5221;SDS011;2630;52.036;8.514;2022-08-02T09:02:36;72.67;;;6.23;;
5221;SDS011;2630;52.036;8.514;2022-08-02T09:05:08;72.17;;;5.43;;
5221;SDS011;2630;52.036;8.514;2022-08-02T09:07:35;72.13;;;6.50;;
5221;SDS011;2630;52.036;8.514;2022-08-02T09:10:20;73.97;;;6.97;;
5221;SDS011;2630;52.036;8.514;2022-08-02T09:13:16;73.40;;;7.37;;
5221;SDS011;2630;52.036;8.514;2022-08-02T09:16:00;73.57;;;7.13;;
5221;SDS011;2630;52.036;8.514;2022-08-02T09:18:38;75.80;;;6.73;;
5221;SDS011;2630;52.036;8.514;2022-08-02T09:21:06;74.17;;;6.80;;
5221;SDS011;2630;52.036;8.514;2022-08-02T09:23:39;73.57;;;6.90;;
5221;SDS011;2630;52.036;8.514;2022-08-02T09:26:11;74.57;;;8.53;;
5221;SDS011;2630;52.036;8.514;2022-08-02T09:28:39;74.07;;;7.43;;
5221;SDS011;2630;52.036;8.514;2022-08-02T09:31:09;73.60;;;6.60;;
5221;SDS011;2630;52.036;8.514;2022-08-02T09:33:43;73.53;;;7.10;;
5221;SDS011;2630;52.036;8.514;2022-08-02T09:38:37;73.77;;;7.10;;
5221;SDS011;2630;52.036;8.514;2022-08-02T09:41:19;74.37;;;7.17;;
5221;SDS011;2630;52.036;8.514;2022-08-02T09:43:49;73.77;;;6.77;;
5221;SDS011;2630;52.036;8.514;2022-08-02T09:46:17;76.40;;;6.20;;
5221;SDS011;2630;52.036;8.514;2022-08-02T09:48:53;73.40;;;6.93;;
5221;SDS011;2630;52.036;8.514;2022-08-02T09:51:30;74.10;;;6.80;;
5221;SDS011;2630;52.036;8.514;2022-08-02T09:54:04;73.07;;;6.97;;
5221;SDS011;2630;52.036;8.514;2022-08-02T09:56:39;73.90;;;7.80;;
5221;SDS011;2630;52.036;8.514;2022-08-02T09:59:06;75.60;;;6.83;;
5221;SDS011;2630;52.036;8.514;2022-08-02T10:01:32;71.97;;;6.47;;
5221;SDS011;2630;52.036;8.514;2022-08-02T10:06:28;73.77;;;6.83;;
5221;SDS011;2630;52.036;8.514;2022-08-02T10:08:54;73.33;;;7.50;;
5221;SDS011;2630;52.036;8.514;2022-08-02T10:11:21;73.57;;;6.77;;
5221;SDS011;2630;52.036;8.514;2022-08-02T10:13:49;74.00;;;7.70;;
5221;SDS011;2630;52.036;8.514;2022-08-02T10:16:15;75.07;;;6.77;;
5221;SDS011;2630;52.036;8.514;2022-08-02T10:18:45;73.27;;;7.33;;
5221;SDS011;2630;52.036;8.514;2022-08-02T10:26:30;81.70;;;9.13;;
5221;SDS011;2630;52.036;8.514;2022-08-02T10:28:57;74.20;;;7.40;;
5221;SDS011;2630;52.036;8.514;2022-08-02T10:31:23;74.10;;;6.80;;
5221;SDS011;2630;52.036;8.514;2022-08-02T10:33:52;75.57;;;7.10;;
5221;SDS011;2630;52.036;8.514;2022-08-02T10:36:20;73.83;;;6.70;;
5221;SDS011;2630;52.036;8.514;2022-08-02T10:38:47;78.17;;;7.93;;
5221;SDS011;2630;52.036;8.514;2022-08-02T10:41:14;74.03;;;8.57;;
5221;SDS011;2630;52.036;8.514;2022-08-02T10:43:59;73.50;;;6.93;;
5221;SDS011;2630;52.036;8.514;2022-08-02T10:46:32;73.50;;;7.03;;
5221;SDS011;2630;52.036;8.514;2022-08-02T10:49:10;73.50;;;6.90;;
5221;SDS011;2630;52.036;8.514;2022-08-02T10:54:17;72.87;;;6.93;;
5221;SDS011;2630;52.036;8.514;2022-08-02T10:56:48;73.40;;;6.90;;
5221;SDS011;2630;52.036;8.514;2022-08-02T10:59:47;73.50;;;7.37;;
5221;SDS011;2630;52.036;8.514;2022-08-02T11:02:06;77.90;;;7.40;;
5221;SDS011;2630;52.036;8.514;2022-08-02T11:07:14;75.40;;;6.70;;
5221;SDS011;2630;52.036;8.514;2022-08-02T11:09:42;80.20;;;9.60;;
5221;SDS011;2630;52.036;8.514;2022-08-02T11:12:12;73.57;;;6.93;;
5221;SDS011;2630;52.036;8.514;2022-08-02T11:14:41;73.07;;;6.67;;
5221;SDS011;2630;52.036;8.514;2022-08-02T11:19:34;77.57;;;7.33;;
5221;SDS011;2630;52.036;8.514;2022-08-02T11:22:04;74.10;;;6.47;;
5221;SDS011;2630;52.036;8.514;2022-08-02T11:24:34;76.00;;;8.03;;
5221;SDS011;2630;52.036;8.514;2022-08-02T11:27:04;73.20;;;7.17;;
5221;SDS011;2630;52.036;8.514;2022-08-02T11:29:41;74.40;;;6.60;;
5221;SDS011;2630;52.036;8.514;2022-08-02T11:32:18;76.20;;;7.20;;
5221;SDS011;2630;52.036;8.514;2022-08-02T11:34:46;76.03;;;6.93;;
5221;SDS011;2630;52.036;8.514;2022-08-02T11:37:29;75.63;;;6.73;;
5221;SDS011;2630;52.036;8.514;2022-08-02T11:39:58;75.83;;;7.50;;
5221;SDS011;2630;52.036;8.514;2022-08-02T11:42:33;76.10;;;7.40;;
5221;SDS011;2630;52.036;8.514;2022-08-02T11:45:00;73.47;;;6.47;;
5221;SDS011;2630;52.036;8.514;2022-08-02T11:47:27;74.90;;;7.13;;
5221;SDS011;2630;52.036;8.514;2022-08-02T11:50:02;78.70;;;7.17;;
5221;SDS011;2630;52.036;8.514;2022-08-02T11:52:33;73.10;;;6.47;;
5221;SDS011;2630;52.036;8.514;2022-08-02T11:54:59;73.57;;;7.07;;
5221;SDS011;2630;52.036;8.514;2022-08-02T11:57:25;75.00;;;7.50;;
5221;SDS011;2630;52.036;8.514;2022-08-02T11:59:51;73.63;;;6.80;;
5221;SDS011;2630;52.036;8.514;2022-08-02T12:02:22;73.30;;;6.13;;
5221;SDS011;2630;52.036;8.514;2022-08-02T12:04:57;73.27;;;7.23;;
5221;SDS011;2630;52.036;8.514;2022-08-02T12:07:37;73.50;;;7.33;;
5221;SDS011;2630;52.036;8.514;2022-08-02T12:10:06;73.10;;;6.73;;
5221;SDS011;2630;52.036;8.514;2022-08-02T12:12:55;73.23;;;6.97;;
5221;SDS011;2630;52.036;8.514;2022-08-02T12:15:28;76.37;;;7.53;;
5221;SDS011;2630;52.036;8.514;2022-08-02T12:18:19;74.10;;;7.47;;
5221;SDS011;2630;52.036;8.514;2022-08-02T12:21:25;79.50;;;8.77;;
5221;SDS011;2630;52.036;8.514;2022-08-02T12:23:50;73.80;;;8.13;;
5221;SDS011;2630;52.036;8.514;2022-08-02T12:26:17;73.87;;;7.50;;
5221;SDS011;2630;52.036;8.514;2022-08-02T12:28:43;76.30;;;8.47;;
5221;SDS011;2630;52.036;8.514;2022-08-02T12:31:10;73.70;;;7.73;;
5221;SDS011;2630;52.036;8.514;2022-08-02T12:33:48;73.47;;;7.90;;
5221;SDS011;2630;52.036;8.514;2022-08-02T12:38:49;73.67;;;7.80;;
5221;SDS011;2630;52.036;8.514;2022-08-02T12:41:15;73.20;;;7.27;;
5221;SDS011;2630;52.036;8.514;2022-08-02T12:43:41;75.07;;;8.90;;
5221;SDS011;2630;52.036;8.514;2022-08-02T12:46:13;74.50;;;8.23;;
5221;SDS011;2630;52.036;8.514;2022-08-02T12:48:41;75.83;;;8.37;;
5221;SDS011;2630;52.036;8.514;2022-08-02T12:53:45;75.07;;;7.90;;
5221;SDS011;2630;52.036;8.514;2022-08-02T12:56:10;80.70;;;8.00;;
5221;SDS011;2630;52.036;8.514;2022-08-02T12:58:49;73.40;;;7.83;;
5221;SDS011;2630;52.036;8.514;2022-08-02T13:01:19;76.73;;;7.73;;
5221;SDS011;2630;52.036;8.514;2022-08-02T13:03:46;76.97;;;8.20;;
5221;SDS011;2630;52.036;8.514;2022-08-02T13:06:12;76.70;;;8.13;;
5221;SDS011;2630;52.036;8.514;2022-08-02T13:08:38;75.90;;;8.13;;
5221;SDS011;2630;52.036;8.514;2022-08-02T13:11:05;75.63;;;8.30;;
5221;SDS011;2630;52.036;8.514;2022-08-02T13:13:30;75.13;;;7.90;;
5221;SDS011;2630;52.036;8.514;2022-08-02T13:15:56;80.77;;;8.43;;
5221;SDS011;2630;52.036;8.514;2022-08-02T13:18:21;76.40;;;8.30;;
5221;SDS011;2630;52.036;8.514;2022-08-02T13:20:47;80.77;;;8.83;;
5221;SDS011;2630;52.036;8.514;2022-08-02T13:23:13;77.70;;;7.97;;
5221;SDS011;2630;52.036;8.514;2022-08-02T13:25:43;76.47;;;8.23;;
5221;SDS011;2630;52.036;8.514;2022-08-02T13:28:08;75.23;;;8.50;;
5221;SDS011;2630;52.036;8.514;2022-08-02T13:30:34;77.10;;;8.40;;
5221;SDS011;2630;52.036;8.514;2022-08-02T13:33:00;75.50;;;7.90;;
5221;SDS011;2630;52.036;8.514;2022-08-02T13:35:26;98.07;;;11.10;;
5221;SDS011;2630;52.036;8.514;2022-08-02T13:37:52;80.63;;;8.93;;
5221;SDS011;2630;52.036;8.514;2022-08-02T13:40:18;82.03;;;8.73;;
5221;SDS011;2630;52.036;8.514;2022-08-02T13:42:44;77.00;;;8.40;;
5221;SDS011;2630;52.036;8.514;2022-08-02T13:45:09;79.80;;;8.07;;
5221;SDS011;2630;52.036;8.514;2022-08-02T13:47:39;73.70;;;7.47;;
5221;SDS011;2630;52.036;8.514;2022-08-02T13:50:06;77.10;;;8.10;;
5221;SDS011;2630;52.036;8.514;2022-08-02T13:52:32;77.87;;;8.90;;
5221;SDS011;2630;52.036;8.514;2022-08-02T13:54:58;76.07;;;7.43;;
5221;SDS011;2630;52.036;8.514;2022-08-02T13:57:23;77.80;;;8.20;;
5221;SDS011;2630;52.036;8.514;2022-08-02T13:59:49;80.07;;;8.70;;
5221;SDS011;2630;52.036;8.514;2022-08-02T14:02:14;80.53;;;8.33;;
5221;SDS011;2630;52.036;8.514;2022-08-02T14:04:40;76.27;;;8.30;;
5221;SDS011;2630;52.036;8.514;2022-08-02T14:07:06;74.37;;;6.60;;
5221;SDS011;2630;52.036;8.514;2022-08-02T14:09:31;75.57;;;6.87;;
5221;SDS011;2630;52.036;8.514;2022-08-02T14:11:59;75.03;;;7.50;;
5221;SDS011;2630;52.036;8.514;2022-08-02T14:14:25;73.50;;;6.93;;
5221;SDS011;2630;52.036;8.514;2022-08-02T14:16:51;74.10;;;6.37;;
5221;SDS011;2630;52.036;8.514;2022-08-02T14:19:17;73.27;;;6.63;;
5221;SDS011;2630;52.036;8.514;2022-08-02T14:21:46;73.90;;;6.70;;
5221;SDS011;2630;52.036;8.514;2022-08-02T14:24:12;77.27;;;7.03;;
5221;SDS011;2630;52.036;8.514;2022-08-02T14:26:37;77.07;;;8.27;;
5221;SDS011;2630;52.036;8.514;2022-08-02T14:29:03;73.47;;;7.50;;
5221;SDS011;2630;52.036;8.514;2022-08-02T14:31:29;73.67;;;7.57;;
5221;SDS011;2630;52.036;8.514;2022-08-02T14:33:55;83.73;;;8.00;;
5221;SDS011;2630;52.036;8.514;2022-08-02T14:36:20;78.77;;;8.07;;
5221;SDS011;2630;52.036;8.514;2022-08-02T14:38:46;77.00;;;7.87;;
5221;SDS011;2630;52.036;8.514;2022-08-02T14:41:12;78.83;;;7.87;;
5221;SDS011;2630;52.036;8.514;2022-08-02T14:43:37;74.57;;;7.50;;
5221;SDS011;2630;52.036;8.514;2022-08-02T14:46:22;73.67;;;7.83;;
5221;SDS011;2630;52.036;8.514;2022-08-02T14:48:48;74.70;;;7.40;;
5221;SDS011;2630;52.036;8.514;2022-08-02T14:51:14;75.27;;;7.33;;
5221;SDS011;2630;52.036;8.514;2022-08-02T14:53:40;76.17;;;7.73;;
5221;SDS011;2630;52.036;8.514;2022-08-02T14:56:06;77.90;;;8.73;;
5221;SDS011;2630;52.036;8.514;2022-08-02T14:58:32;81.27;;;8.73;;
5221;SDS011;2630;52.036;8.514;2022-08-02T15:00:57;77.10;;;8.27;;
5221;SDS011;2630;52.036;8.514;2022-08-02T15:03:23;74.07;;;7.97;;
5221;SDS011;2630;52.036;8.514;2022-08-02T15:05:49;73.27;;;7.53;;
5221;SDS011;2630;52.036;8.514;2022-08-02T15:08:14;73.47;;;7.63;;
5221;SDS011;2630;52.036;8.514;2022-08-02T15:10:40;73.30;;;7.07;;
5221;SDS011;2630;52.036;8.514;2022-08-02T15:13:05;73.67;;;7.97;;
5221;SDS011;2630;52.036;8.514;2022-08-02T15:15:31;75.43;;;7.87;;
5221;SDS011;2630;52.036;8.514;2022-08-02T15:17:57;74.53;;;8.20;;
5221;SDS011;2630;52.036;8.514;2022-08-02T15:20:23;73.63;;;7.60;;
5221;SDS011;2630;52.036;8.514;2022-08-02T15:22:48;73.60;;;7.70;;
5221;SDS011;2630;52.036;8.514;2022-08-02T15:25:14;75.00;;;7.60;;
5221;SDS011;2630;52.036;8.514;2022-08-02T15:27:40;75.10;;;7.80;;
5221;SDS011;2630;52.036;8.514;2022-08-02T15:30:06;76.80;;;7.67;;
5221;SDS011;2630;52.036;8.514;2022-08-02T15:32:32;73.33;;;7.60;;
5221;SDS011;2630;52.036;8.514;2022-08-02T15:34:58;76.00;;;7.57;;
5221;SDS011;2630;52.036;8.514;2022-08-02T15:37:24;73.27;;;7.30;;
5221;SDS011;2630;52.036;8.514;2022-08-02T15:39:50;73.10;;;7.17;;
5221;SDS011;2630;52.036;8.514;2022-08-02T15:42:15;74.73;;;8.60;;
5221;SDS011;2630;52.036;8.514;2022-08-02T15:44:42;73.77;;;7.13;;
5221;SDS011;2630;52.036;8.514;2022-08-02T15:47:09;75.20;;;8.07;;
5221;SDS011;2630;52.036;8.514;2022-08-02T15:49:34;73.20;;;7.00;;